createdAt,value
2018-12-19T00:00:15.795Z,0
2018-12-19T00:01:15.926Z,0
2018-12-19T00:02:16.333Z,0
2018-12-19T00:03:18.019Z,0
2018-12-19T00:04:19.108Z,0
2018-12-19T00:05:20.072Z,0
2018-12-19T00:06:20.204Z,0
2018-12-19T00:07:21.632Z,0
2018-12-19T00:08:22.769Z,0
2018-12-19T00:09:23.179Z,0
2018-12-19T00:10:24.868Z,0
2018-12-19T00:11:25.823Z,0
2018-12-19T00:12:27.063Z,0
2018-12-19T00:13:27.751Z,0
2018-12-19T00:14:28.589Z,0
2018-12-19T00:15:30.270Z,0
2018-12-19T00:16:30.956Z,0
2018-12-19T00:17:31.365Z,0
2018-12-19T00:18:32.342Z,0
2018-12-19T00:19:32.757Z,0
2018-12-19T00:20:33.440Z,0
2018-12-19T00:21:33.851Z,0
2018-12-19T00:22:34.255Z,0
2018-12-19T00:23:34.386Z,0
2018-12-19T00:24:35.775Z,0
2018-12-19T00:25:36.014Z,0
2018-12-19T00:26:36.422Z,0
2018-12-19T00:27:37.389Z,0
2018-12-19T00:28:37.515Z,0
2018-12-19T00:29:38.645Z,0
2018-12-19T00:30:40.334Z,0
2018-12-19T00:31:41.023Z,0
2018-12-19T00:32:41.990Z,0
2018-12-19T00:33:42.123Z,0
2018-12-19T00:34:43.232Z,0
2018-12-19T00:35:43.643Z,0
2018-12-19T00:36:44.053Z,0
2018-12-19T00:37:45.017Z,0
2018-12-19T00:38:45.425Z,0
2018-12-19T00:39:45.555Z,0
2018-12-19T00:40:47.519Z,0
2018-12-19T00:41:46.929Z,0
2018-12-19T00:42:48.613Z,0
2018-12-19T00:43:49.019Z,0
2018-12-19T00:44:49.449Z,0
2018-12-19T00:45:50.169Z,0
2018-12-19T00:46:50.925Z,0
2018-12-19T00:47:51.662Z,0
2018-12-19T00:48:52.071Z,0
2018-12-19T00:49:52.479Z,0
2018-12-19T00:50:52.887Z,0
2018-12-19T00:51:53.595Z,0
2018-12-19T00:52:54.842Z,0
2018-12-19T00:53:54.807Z,0
2018-12-19T00:54:55.186Z,0
2018-12-19T00:55:56.426Z,0
2018-12-19T00:56:57.112Z,0
2018-12-19T00:57:57.524Z,0
2018-12-19T00:58:58.205Z,0
2018-12-19T00:59:58.336Z,0
2018-12-19T01:00:59.075Z,0
2018-12-19T01:01:59.760Z,0
2018-12-19T01:03:00.447Z,0
2018-12-19T01:04:01.412Z,0
2018-12-19T01:05:01.252Z,0
2018-12-19T01:06:01.940Z,0
2018-12-19T01:07:03.183Z,0
2018-12-19T01:08:04.427Z,0
2018-12-19T01:09:04.833Z,0
2018-12-19T01:10:05.244Z,0
2018-12-19T01:11:05.651Z,0
2018-12-19T01:12:07.889Z,0
2018-12-19T01:13:07.293Z,0
2018-12-19T01:14:08.978Z,0
2018-12-19T01:15:09.942Z,0
2018-12-19T01:16:09.622Z,0
2018-12-19T01:17:10.032Z,0
2018-12-19T01:18:10.489Z,0
2018-12-19T01:19:11.173Z,0
2018-12-19T01:20:11.303Z,0
2018-12-19T01:21:11.988Z,0
2018-12-19T01:22:12.400Z,0
2018-12-19T01:23:13.812Z,0
2018-12-19T01:24:13.941Z,0
2018-12-19T01:25:14.533Z,0
2018-12-19T01:26:15.778Z,0
2018-12-19T01:27:16.575Z,0
2018-12-19T01:28:17.262Z,0
2018-12-19T04:17:23.618Z,0
2018-12-19T04:18:24.711Z,0
2018-12-19T04:19:26.008Z,0
2018-12-19T04:20:25.979Z,0
2018-12-19T04:21:27.234Z,0
2018-12-19T04:22:28.207Z,0
2018-12-19T04:23:28.454Z,0
2018-12-19T04:24:30.543Z,0
2018-12-19T04:25:30.792Z,0
2018-12-19T04:26:31.057Z,0
2018-12-19T04:27:31.802Z,0
2018-12-19T04:28:32.759Z,0
2018-12-19T04:29:33.298Z,0
2018-12-19T04:30:32.989Z,0
2018-12-19T04:31:34.237Z,0
2018-12-19T04:32:34.930Z,0
2018-12-19T04:33:36.195Z,0
2018-12-19T04:34:35.338Z,0
2018-12-19T04:35:36.469Z,0
2018-12-19T04:36:38.444Z,0
2018-12-19T04:37:38.579Z,0
2018-12-19T04:38:39.956Z,0
2018-12-19T04:39:41.216Z,0
2018-12-19T04:40:41.355Z,0
2018-12-19T04:41:42.323Z,0
2018-12-19T04:42:43.018Z,0
2018-12-19T04:43:44.986Z,0
2018-12-19T04:44:45.959Z,0
2018-12-19T04:45:46.681Z,0
2018-12-19T04:46:47.650Z,0
2018-12-19T04:47:48.348Z,0
2018-12-19T04:48:49.173Z,0
2018-12-19T04:49:50.143Z,0
2018-12-19T04:50:51.115Z,0
2018-12-19T04:51:52.653Z,0
2018-12-19T04:52:52.788Z,0
2018-12-19T04:53:54.760Z,0
2018-12-19T04:54:54.733Z,0
2018-12-19T04:55:55.144Z,0
2018-12-19T04:56:55.562Z,0
2018-12-19T04:57:56.030Z,0
2018-12-19T04:58:56.980Z,0
2018-12-19T04:59:58.509Z,0
2018-12-19T05:00:58.754Z,0
2018-12-19T05:01:59.031Z,0
2018-12-19T05:02:58.727Z,0
2018-12-19T05:04:00.185Z,0
2018-12-19T05:05:01.207Z,0
2018-12-19T05:06:03.702Z,0
2018-12-19T05:07:02.126Z,0
2018-12-19T05:08:03.726Z,0
2018-12-19T05:09:03.280Z,0
2018-12-19T05:10:03.979Z,0
2018-12-19T05:11:04.732Z,0
2018-12-19T05:12:05.425Z,0
2018-12-19T05:13:06.120Z,0
2018-12-19T05:14:07.366Z,0
2018-12-19T05:15:08.062Z,0
2018-12-19T05:16:08.198Z,0
2018-12-19T05:17:09.613Z,0
2018-12-19T05:18:10.304Z,0
2018-12-19T05:19:11.536Z,0
2018-12-19T05:20:11.506Z,0
2018-12-19T05:21:11.643Z,0
2018-12-19T05:22:12.781Z,0
2018-12-19T05:23:13.191Z,0
2018-12-19T05:24:13.881Z,0
2018-12-19T05:25:14.572Z,0
2018-12-19T05:26:14.714Z,0
2018-12-19T05:27:15.747Z,0
2018-12-19T05:28:16.436Z,0
2018-12-19T05:29:17.261Z,0
2018-12-19T05:30:18.507Z,0
2018-12-19T05:31:19.478Z,0
2018-12-19T05:32:19.725Z,0
2018-12-19T05:33:20.419Z,0
2018-12-19T05:34:20.555Z,0
2018-12-19T05:35:23.079Z,0
2018-12-19T05:36:23.051Z,0
2018-12-19T05:37:23.464Z,0
2018-12-19T05:38:24.708Z,0
2018-12-19T05:39:24.585Z,0
2018-12-19T05:40:25.272Z,0
2018-12-19T05:41:26.242Z,0
2018-12-19T05:42:26.378Z,0
2018-12-19T05:43:27.345Z,0
2018-12-19T05:44:28.596Z,0
2018-12-19T05:45:29.015Z,0
2018-12-19T05:46:29.986Z,0
2018-12-19T05:47:30.404Z,0
2018-12-19T05:48:31.104Z,0
2018-12-19T05:49:32.529Z,0
2018-12-19T05:50:33.498Z,0
2018-12-19T05:51:34.465Z,0
2018-12-19T05:52:35.432Z,0
2018-12-19T05:53:35.848Z,0
2018-12-19T05:54:37.267Z,0
2018-12-19T05:55:38.229Z,0
2018-12-19T05:56:38.920Z,0
2018-12-19T05:57:39.891Z,0
2018-12-19T05:58:40.307Z,0
2018-12-19T05:59:42.286Z,0
2018-12-19T06:00:42.424Z,0
2018-12-19T06:01:43.837Z,0
2018-12-19T06:02:46.079Z,0
2018-12-19T06:03:45.773Z,0
2018-12-19T06:04:45.908Z,0
2018-12-19T06:05:47.043Z,0
2018-12-19T06:06:47.459Z,0
2018-12-19T06:07:48.873Z,0
2018-12-19T06:08:49.013Z,0
2018-12-19T06:09:50.392Z,0
2018-12-19T06:10:51.082Z,0
2018-12-19T06:11:51.500Z,0
2018-12-19T06:12:51.959Z,0
2018-12-19T06:13:53.380Z,0
2018-12-19T06:14:54.692Z,0
2018-12-19T06:15:54.102Z,0
2018-12-19T06:16:54.516Z,0
2018-12-19T06:17:54.995Z,0
2018-12-19T06:18:55.964Z,0
2018-12-19T06:19:57.082Z,0
2018-12-19T06:20:57.771Z,0
2018-12-19T06:21:58.465Z,0
2018-12-19T06:22:59.174Z,0
2018-12-19T06:23:59.877Z,0
2018-12-19T06:25:00.011Z,0
2018-12-19T06:26:00.702Z,0
2018-12-19T06:27:01.952Z,0
2018-12-19T06:28:01.919Z,0
2018-12-19T06:29:02.333Z,0
2018-12-19T06:30:03.717Z,0
2018-12-19T06:31:04.685Z,0
2018-12-19T06:32:05.104Z,0
2018-12-19T06:33:06.066Z,0
2018-12-19T06:34:06.759Z,0
2018-12-19T06:35:07.234Z,0
2018-12-19T06:36:07.648Z,0
2018-12-19T06:37:08.782Z,0
2018-12-19T06:38:10.197Z,0
2018-12-19T06:39:11.442Z,0
2018-12-19T06:40:11.566Z,0
2018-12-19T06:41:11.981Z,0
2018-12-19T06:42:12.398Z,0
2018-12-19T06:43:12.533Z,0
2018-12-19T06:44:14.063Z,0
2018-12-19T06:45:14.793Z,0
2018-12-19T06:46:15.489Z,0
2018-12-19T06:47:15.904Z,0
2018-12-19T06:48:17.430Z,0
2018-12-19T06:49:18.126Z,0
2018-12-19T06:50:18.393Z,0
2018-12-19T06:51:21.130Z,0
2018-12-19T06:52:22.265Z,0
2018-12-19T06:53:24.235Z,0
2018-12-19T06:54:24.930Z,0
2018-12-19T06:55:25.400Z,0
2018-12-19T06:56:26.095Z,0
2018-12-19T06:57:26.288Z,0
2018-12-19T06:58:26.711Z,0
2018-12-19T06:59:28.565Z,0
2018-12-19T07:00:28.662Z,0
2018-12-19T07:01:30.077Z,0
2018-12-19T07:02:30.213Z,0
2018-12-19T07:03:31.184Z,0
2018-12-19T07:04:31.323Z,5.63
2018-12-19T07:05:32.015Z,5.63
2018-12-19T07:06:33.267Z,5.63
2018-12-19T07:07:32.965Z,5.63
2018-12-19T07:08:33.387Z,5.63
2018-12-19T07:09:35.358Z,5.63
2018-12-19T07:10:41.201Z,5.63
2018-12-19T07:10:47.496Z,5.63
2018-12-19T07:11:48.331Z,5.63
2018-12-19T07:12:49.309Z,11.25
2018-12-19T07:13:50.004Z,11.25
2018-12-19T07:14:50.422Z,11.25
2018-12-19T07:15:52.356Z,11.25
2018-12-19T07:16:51.796Z,11.25
2018-12-19T07:17:53.252Z,11.25
2018-12-19T07:18:53.945Z,16.88
2018-12-19T07:19:54.366Z,16.88
2018-12-19T07:20:55.339Z,16.88
2018-12-19T07:21:55.249Z,16.88
2018-12-19T07:22:56.389Z,16.88
2018-12-19T07:23:57.364Z,22.5
2018-12-19T07:24:58.391Z,22.5
2018-12-19T07:25:59.085Z,22.5
2018-12-19T07:26:59.224Z,22.5
2018-12-19T07:28:00.114Z,28.13
2018-12-19T07:29:00.423Z,28.13
2018-12-19T07:30:01.561Z,28.13
2018-12-19T07:31:04.404Z,33.75
2018-12-19T07:32:04.295Z,33.75
2018-12-19T07:33:04.991Z,39.38
2018-12-19T07:34:05.720Z,39.38
2018-12-19T07:35:06.694Z,39.38
2018-12-19T07:36:07.500Z,45
2018-12-19T07:37:18.669Z,45
2018-12-19T07:38:20.360Z,50.63
2018-12-19T07:39:20.780Z,50.63
2018-12-19T07:40:24.801Z,50.63
2018-12-19T07:41:23.054Z,56.25
2018-12-19T07:42:24.027Z,56.25
2018-12-19T07:43:24.168Z,56.25
2018-12-19T07:44:25.150Z,56.25
2018-12-19T07:45:26.673Z,56.25
2018-12-19T07:46:26.729Z,56.25
2018-12-19T07:47:27.731Z,56.25
2018-12-19T07:48:28.129Z,56.25
2018-12-19T07:49:29.085Z,61.88
2018-12-19T07:50:29.861Z,61.88
2018-12-19T07:51:31.113Z,67.5
2018-12-19T07:52:30.821Z,73.13
2018-12-19T07:53:31.237Z,78.75
2018-12-19T07:54:31.653Z,78.75
2018-12-19T07:55:32.108Z,78.75
2018-12-19T07:56:33.082Z,78.75
2018-12-19T07:57:32.500Z,78.75
2018-12-19T07:58:33.114Z,78.75
2018-12-19T07:59:34.135Z,78.75
2018-12-19T08:00:34.558Z,84.38
2018-12-19T08:01:35.550Z,84.38
2018-12-19T08:02:36.031Z,84.38
2018-12-19T08:03:36.171Z,84.38
2018-12-19T08:04:37.589Z,84.38
2018-12-19T08:05:38.840Z,84.38
2018-12-19T08:06:39.263Z,90
2018-12-19T08:07:39.959Z,90
2018-12-19T08:08:40.512Z,90
2018-12-19T08:09:40.933Z,90
2018-12-19T08:10:41.630Z,84.38
2018-12-19T08:11:42.326Z,84.38
2018-12-19T08:12:43.027Z,78.75
2018-12-19T08:13:43.724Z,78.75
2018-12-19T08:14:44.424Z,78.75
2018-12-19T08:15:44.561Z,73.13
2018-12-19T08:16:45.259Z,73.13
2018-12-19T08:17:45.680Z,73.13
2018-12-19T08:18:47.103Z,73.13
2018-12-19T08:19:47.557Z,73.13
2018-12-19T08:20:47.701Z,67.5
2018-12-19T08:21:48.536Z,67.5
2018-12-19T08:22:48.814Z,67.5
2018-12-19T08:23:49.793Z,67.5
2018-12-19T08:24:49.936Z,67.5
2018-12-19T08:25:51.638Z,67.5
2018-12-19T08:26:51.783Z,67.5
2018-12-19T08:27:53.206Z,73.13
2018-12-19T08:28:54.033Z,73.13
2018-12-19T08:29:55.008Z,73.13
2018-12-19T08:30:56.183Z,73.13
2018-12-19T08:31:56.898Z,73.13
2018-12-19T08:32:57.875Z,73.13
2018-12-19T08:33:57.340Z,73.13
2018-12-19T08:34:57.759Z,78.75
2018-12-19T08:35:58.184Z,78.75
2018-12-19T08:36:58.881Z,78.75
2018-12-19T08:37:59.586Z,78.75
2018-12-19T08:39:01.229Z,84.38
2018-12-19T08:40:00.694Z,84.38
2018-12-19T08:41:01.479Z,84.38
2018-12-19T08:42:01.902Z,90
2018-12-19T08:43:02.602Z,90
2018-12-19T08:44:03.937Z,90
2018-12-19T08:45:04.467Z,95.63
2018-12-19T08:46:07.346Z,95.63
2018-12-19T08:46:18.090Z,95.63
2018-12-19T08:47:19.370Z,95.63
2018-12-19T08:48:37.603Z,95.63
2018-12-19T08:48:48.952Z,95.63
2018-12-19T08:49:02.563Z,95.63
2018-12-19T08:49:10.361Z,95.63
2018-12-19T08:50:09.687Z,95.63
2018-12-19T08:51:10.109Z,101.25
2018-12-19T08:52:11.083Z,101.25
2018-12-19T08:53:11.510Z,101.25
2018-12-19T08:54:11.927Z,106.88
2018-12-19T08:55:13.067Z,106.88
2018-12-19T08:56:16.025Z,112.5
2018-12-19T08:57:14.169Z,112.5
2018-12-19T08:58:14.588Z,118.13
2018-12-19T08:59:15.730Z,118.13
2018-12-19T09:00:16.282Z,118.13
2018-12-19T09:01:16.708Z,123.75
2018-12-19T09:02:18.416Z,123.75
2018-12-19T09:03:18.833Z,129.38
2018-12-19T09:04:31.566Z,135
2018-12-19T09:05:32.157Z,135
2018-12-19T09:06:33.579Z,140.63
2018-12-19T09:07:35.110Z,140.63
2018-12-19T09:08:34.532Z,140.63
2018-12-19T09:09:36.229Z,140.63
2018-12-19T09:10:37.261Z,140.63
2018-12-19T09:11:37.691Z,140.63
2018-12-19T09:12:38.389Z,140.63
2018-12-19T09:13:38.808Z,140.63
2018-12-19T09:14:40.063Z,140.63
2018-12-19T09:15:40.464Z,140.63
2018-12-19T09:16:40.606Z,140.63
2018-12-19T09:17:41.795Z,140.63
2018-12-19T09:18:42.215Z,140.63
2018-12-19T09:19:42.973Z,140.63
2018-12-19T09:20:43.111Z,140.63
2018-12-19T09:21:44.813Z,135
2018-12-19T09:22:44.512Z,135
2018-12-19T09:23:46.492Z,135
2018-12-19T09:24:47.469Z,135
2018-12-19T09:25:48.028Z,135
2018-12-19T09:26:48.168Z,129.38
2018-12-19T09:27:49.313Z,135
2018-12-19T09:28:50.740Z,123.75
2018-12-19T09:29:50.883Z,129.38
2018-12-19T09:30:52.307Z,123.75
2018-12-19T09:31:52.481Z,123.75
2018-12-19T09:32:54.799Z,123.75
2018-12-19T09:33:55.943Z,123.75
2018-12-19T09:34:57.363Z,123.75
2018-12-19T09:35:58.468Z,123.75
2018-12-19T09:36:58.892Z,123.75
2018-12-19T09:37:59.344Z,123.75
2018-12-19T09:38:59.487Z,129.38
2018-12-19T09:40:00.465Z,129.38
2018-12-19T09:41:01.179Z,129.38
2018-12-19T09:42:01.604Z,129.38
2018-12-19T09:43:03.145Z,129.38
2018-12-19T09:44:02.840Z,129.38
2018-12-19T09:45:02.996Z,129.38
2018-12-19T09:46:03.827Z,123.75
2018-12-19T09:47:04.526Z,123.75
2018-12-19T09:48:05.223Z,123.75
2018-12-19T09:49:18.236Z,123.75
2018-12-19T09:50:18.128Z,118.13
2018-12-19T09:51:19.554Z,118.13
2018-12-19T09:52:19.977Z,118.13
2018-12-19T09:53:20.675Z,118.13
2018-12-19T09:54:21.099Z,112.5
2018-12-19T09:55:22.520Z,112.5
2018-12-19T09:56:23.499Z,112.5
2018-12-19T09:57:24.196Z,118.13
2018-12-19T09:58:25.474Z,123.75
2018-12-19T09:59:25.446Z,123.75
2018-12-19T10:00:25.836Z,123.75
2018-12-19T10:01:26.255Z,129.38
2018-12-19T10:02:26.677Z,135
2018-12-19T10:03:27.099Z,135
2018-12-19T10:04:27.517Z,129.38
2018-12-19T10:05:28.662Z,129.38
2018-12-19T10:06:30.640Z,129.38
2018-12-19T10:07:31.832Z,135
2018-12-19T10:08:33.942Z,140.63
2018-12-19T10:09:33.641Z,140.63
2018-12-19T10:10:34.075Z,140.63
2018-12-19T10:11:35.050Z,140.63
2018-12-19T10:12:35.489Z,140.63
2018-12-19T10:13:36.913Z,135
2018-12-19T10:14:37.891Z,129.38
2018-12-19T10:15:38.913Z,123.75
2018-12-19T10:16:39.611Z,118.13
2018-12-19T10:17:43.108Z,112.5
2018-12-19T10:18:45.362Z,101.25
2018-12-19T10:19:45.129Z,95.63
2018-12-19T10:20:45.330Z,90
2018-12-19T10:21:47.640Z,84.38
2018-12-19T10:22:46.843Z,84.38
2018-12-19T10:23:48.343Z,84.38
2018-12-19T10:24:51.790Z,84.38
2018-12-19T10:25:50.381Z,84.38
2018-12-19T10:26:51.077Z,84.38
2018-12-19T10:27:51.496Z,90
2018-12-19T10:28:51.956Z,90
2018-12-19T10:29:52.931Z,95.63
2018-12-19T10:30:53.055Z,95.63
2018-12-19T10:31:53.758Z,90
2018-12-19T10:32:54.456Z,90
2018-12-19T10:33:55.430Z,90
2018-12-19T10:34:54.854Z,84.38
2018-12-19T10:35:55.270Z,78.75
2018-12-19T10:36:57.582Z,67.5
2018-12-19T10:37:57.275Z,67.5
2018-12-19T10:38:57.584Z,61.88
2018-12-19T10:39:58.056Z,61.88
2018-12-19T10:40:58.645Z,61.88
2018-12-19T10:41:59.062Z,61.88
2018-12-19T10:43:00.036Z,61.88
2018-12-19T10:44:00.455Z,56.25
2018-12-19T10:45:00.594Z,56.25
2018-12-19T10:46:02.843Z,56.25
2018-12-19T10:47:02.595Z,61.88
2018-12-19T10:48:03.849Z,61.88
2018-12-19T10:49:03.987Z,61.88
2018-12-19T10:50:04.405Z,61.88
2018-12-19T10:51:05.233Z,61.88
2018-12-19T10:52:05.680Z,61.88
2018-12-19T10:53:06.098Z,61.88
2018-12-19T10:54:06.529Z,67.5
2018-12-19T10:55:06.672Z,67.5
2018-12-19T10:56:08.373Z,73.13
2018-12-19T10:57:09.798Z,73.13
2018-12-19T10:58:10.832Z,73.13
2018-12-19T10:59:10.779Z,73.13
2018-12-19T11:00:11.536Z,73.13
2018-12-19T11:01:11.584Z,78.75
2018-12-19T11:02:12.646Z,78.75
2018-12-19T11:03:12.205Z,84.38
2018-12-19T11:04:13.637Z,84.38
2018-12-19T11:05:15.056Z,90
2018-12-19T11:06:16.162Z,95.63
2018-12-19T11:07:16.313Z,95.63
2018-12-19T11:08:17.314Z,101.25
2018-12-19T11:09:18.009Z,101.25
2018-12-19T11:10:18.155Z,101.25
2018-12-19T11:11:19.165Z,106.88
2018-12-19T11:12:21.375Z,106.88
2018-12-19T11:13:21.632Z,112.5
2018-12-19T11:14:21.327Z,118.13
2018-12-19T11:15:22.022Z,118.13
2018-12-19T11:16:22.502Z,123.75
2018-12-19T11:17:23.204Z,129.38
2018-12-19T11:18:24.234Z,135
2018-12-19T11:19:24.654Z,140.63
2018-12-19T11:20:25.524Z,146.25
2018-12-19T11:21:26.122Z,151.88
2018-12-19T11:22:27.263Z,163.13
2018-12-19T11:23:28.967Z,168.75
2018-12-19T11:24:33.637Z,168.75
2018-12-19T11:25:31.428Z,168.75
2018-12-19T11:26:31.852Z,157.5
2018-12-19T11:27:32.822Z,157.5
2018-12-19T11:28:33.242Z,157.5
2018-12-19T11:29:33.387Z,151.88
2018-12-19T11:30:35.160Z,140.63
2018-12-19T11:31:36.024Z,135
2018-12-19T11:32:36.169Z,135
2018-12-19T11:33:36.875Z,135
2018-12-19T11:34:37.311Z,135
2018-12-19T11:35:37.732Z,140.63
2018-12-19T11:36:38.159Z,140.63
2018-12-19T11:37:38.599Z,140.63
2018-12-19T11:38:39.576Z,140.63
2018-12-19T11:39:40.280Z,135
2018-12-19T11:40:40.983Z,135
2018-12-19T11:41:41.456Z,129.38
2018-12-19T11:42:42.877Z,129.38
2018-12-19T11:43:43.639Z,129.38
2018-12-19T11:44:44.668Z,129.38
2018-12-19T11:45:47.123Z,129.38
2018-12-19T11:46:45.828Z,129.38
2018-12-19T11:47:46.971Z,129.38
2018-12-19T11:48:48.946Z,129.38
2018-12-19T11:49:49.364Z,123.75
2018-12-19T11:50:50.071Z,123.75
2018-12-19T11:51:51.251Z,123.75
2018-12-19T11:52:54.626Z,123.75
2018-12-19T11:53:52.397Z,123.75
2018-12-19T11:54:53.097Z,129.38
2018-12-19T11:55:53.518Z,129.38
2018-12-19T11:56:53.943Z,135
2018-12-19T11:57:54.645Z,135
2018-12-19T11:58:55.706Z,135
2018-12-19T11:59:56.407Z,135
2018-12-19T12:00:56.116Z,129.38
2018-12-19T12:01:57.562Z,129.38
2018-12-19T12:02:58.144Z,123.75
2018-12-19T12:03:59.324Z,118.13
2018-12-19T12:04:58.465Z,118.13
2018-12-19T12:05:59.441Z,118.13
2018-12-19T12:07:00.415Z,118.13
2018-12-19T12:08:01.119Z,112.5
2018-12-19T12:09:02.253Z,112.5
2018-12-19T12:10:03.344Z,118.13
2018-12-19T12:11:03.056Z,118.13
2018-12-19T12:12:04.169Z,118.13
2018-12-19T12:13:05.043Z,118.13
2018-12-19T12:14:05.616Z,118.13
2018-12-19T12:15:06.883Z,123.75
2018-12-19T12:16:07.344Z,123.75
2018-12-19T12:17:09.789Z,123.75
2018-12-19T12:18:10.066Z,129.38
2018-12-19T12:19:08.772Z,135
2018-12-19T12:20:09.822Z,140.63
2018-12-19T12:21:10.521Z,146.25
2018-12-19T12:22:11.331Z,151.88
2018-12-19T12:23:12.291Z,163.13
2018-12-19T12:24:13.268Z,163.13
2018-12-19T12:25:14.246Z,168.75
2018-12-19T12:26:14.946Z,168.75
2018-12-19T12:27:15.449Z,174.38
2018-12-19T12:28:15.612Z,174.38
2018-12-19T12:29:17.033Z,180
2018-12-19T12:30:17.681Z,191.25
2018-12-19T12:31:18.737Z,253.13
2018-12-19T12:32:18.882Z,230.63
2018-12-19T12:33:19.308Z,196.88
2018-12-19T12:34:20.291Z,202.5
2018-12-19T12:35:21.116Z,196.88
2018-12-19T12:36:22.158Z,191.25
2018-12-19T12:37:22.758Z,191.25
2018-12-19T12:38:23.780Z,191.25
2018-12-19T12:39:25.308Z,174.38
2018-12-19T12:40:25.288Z,174.38
2018-12-19T12:41:25.711Z,168.75
2018-12-19T12:42:26.269Z,168.75
2018-12-19T12:43:28.239Z,163.13
2018-12-19T12:44:27.770Z,157.5
2018-12-19T12:45:29.745Z,157.5
2018-12-19T12:46:30.172Z,157.5
2018-12-19T12:47:30.924Z,163.13
2018-12-19T12:48:31.901Z,157.5
2018-12-19T12:49:32.322Z,157.5
2018-12-19T12:50:32.748Z,151.88
2018-12-19T12:51:33.170Z,146.25
2018-12-19T12:52:33.727Z,140.63
2018-12-19T12:53:34.147Z,140.63
2018-12-19T12:54:35.451Z,135
2018-12-19T12:55:37.252Z,135
2018-12-19T12:56:36.451Z,135
2018-12-19T12:57:37.786Z,140.63
2018-12-19T12:58:37.875Z,140.63
2018-12-19T12:59:38.433Z,140.63
2018-12-19T13:00:41.847Z,135
2018-12-19T13:01:42.197Z,129.38
2018-12-19T13:02:42.749Z,123.75
2018-12-19T13:03:43.287Z,118.13
2018-12-19T13:04:43.676Z,112.5
2018-12-19T13:05:44.673Z,112.5
2018-12-19T13:06:44.096Z,106.88
2018-12-19T13:07:58.622Z,101.25
2018-12-19T13:08:57.395Z,101.25
2018-12-19T13:09:59.094Z,101.25
2018-12-19T13:10:59.816Z,101.25
2018-12-19T13:12:02.747Z,101.25
2018-12-19T13:13:04.376Z,101.25
2018-12-19T13:14:03.048Z,101.25
2018-12-19T13:15:03.561Z,101.25
2018-12-19T13:16:04.813Z,101.25
2018-12-19T13:17:05.512Z,101.25
2018-12-19T13:18:06.486Z,95.63
2018-12-19T13:19:08.507Z,95.63
2018-12-19T13:20:07.760Z,95.63
2018-12-19T13:21:09.789Z,90
2018-12-19T13:22:12.360Z,90
2018-12-19T13:23:11.673Z,84.38
2018-12-19T13:24:12.141Z,84.38
2018-12-19T13:25:12.839Z,78.75
2018-12-19T13:26:14.267Z,78.75
2018-12-19T13:27:14.524Z,73.13
2018-12-19T13:28:16.226Z,73.13
2018-12-19T13:29:16.031Z,67.5
2018-12-19T13:30:16.605Z,67.5
2018-12-19T13:31:17.519Z,61.88
2018-12-19T13:32:17.657Z,61.88
2018-12-19T13:33:19.411Z,61.88
2018-12-19T13:34:20.420Z,61.88
2018-12-19T13:35:21.806Z,56.25
2018-12-19T13:36:22.162Z,56.25
2018-12-19T13:37:21.878Z,56.25
2018-12-19T13:38:22.299Z,50.63
2018-12-19T13:39:23.430Z,50.63
2018-12-19T13:40:26.378Z,50.63
2018-12-19T13:41:24.552Z,45
2018-12-19T13:42:25.252Z,45
2018-12-19T13:43:26.225Z,45
2018-12-19T13:44:26.945Z,45
2018-12-19T13:45:27.367Z,45
2018-12-19T13:46:28.168Z,45
2018-12-19T13:47:28.599Z,45
2018-12-19T13:48:29.745Z,45
2018-12-19T13:49:33.879Z,50.63
2018-12-19T13:50:34.971Z,50.63
2018-12-19T13:51:32.914Z,56.25
2018-12-19T13:52:35.000Z,56.25
2018-12-19T13:53:34.710Z,56.25
2018-12-19T13:54:36.670Z,56.25
2018-12-19T13:55:37.335Z,61.88
2018-12-19T13:56:40.452Z,61.88
2018-12-19T13:57:39.430Z,67.5
2018-12-19T13:58:40.410Z,67.5
2018-12-19T13:59:40.536Z,73.13
2018-12-19T14:00:41.795Z,73.13
2018-12-19T14:01:42.000Z,73.13
2018-12-19T14:02:42.766Z,73.13
2018-12-19T14:03:43.186Z,73.13
2018-12-19T14:04:48.164Z,78.75
2018-12-19T14:05:45.939Z,73.13
2018-12-19T14:06:46.638Z,73.13
2018-12-19T14:07:46.781Z,73.13
2018-12-19T14:08:48.453Z,73.13
2018-12-19T14:09:48.569Z,73.13
2018-12-19T14:10:51.581Z,73.13
2018-12-19T14:11:50.442Z,73.13
2018-12-19T14:12:51.618Z,67.5
2018-12-19T14:13:52.761Z,67.5
2018-12-19T14:14:54.072Z,67.5
2018-12-19T14:15:54.492Z,61.88
2018-12-19T14:16:55.531Z,61.88
2018-12-19T14:17:56.228Z,56.25
2018-12-19T14:18:57.204Z,56.25
2018-12-19T14:20:00.125Z,56.25
2018-12-19T14:20:59.112Z,50.63
2018-12-19T14:22:00.121Z,50.63
2018-12-19T14:23:00.575Z,45
2018-12-19T14:24:03.116Z,45
2018-12-19T14:25:02.540Z,39.38
2018-12-19T14:26:03.514Z,39.38
2018-12-19T14:27:04.492Z,39.38
2018-12-19T14:28:05.765Z,39.38
2018-12-19T14:29:05.907Z,33.75
2018-12-19T14:30:06.462Z,33.75
2018-12-19T14:31:07.159Z,33.75
2018-12-19T14:32:07.307Z,33.75
2018-12-19T14:33:08.447Z,33.75
2018-12-19T14:34:10.417Z,33.75
2018-12-19T14:35:10.838Z,33.75
2018-12-19T14:36:11.837Z,33.75
2018-12-19T14:37:11.989Z,33.75
2018-12-19T14:38:13.687Z,33.75
2018-12-19T14:39:14.387Z,33.75
2018-12-19T14:40:14.871Z,33.75
2018-12-19T14:41:19.071Z,33.75
2018-12-19T14:42:20.999Z,33.75
2018-12-19T14:43:21.968Z,28.13
2018-12-19T14:44:22.404Z,28.13
2018-12-19T14:45:22.888Z,28.13
2018-12-19T14:46:23.585Z,28.13
2018-12-19T14:47:24.004Z,28.13
2018-12-19T14:48:25.254Z,28.13
2018-12-19T14:49:25.949Z,28.13
2018-12-19T14:50:31.425Z,33.75
2018-12-19T14:50:38.346Z,33.75
2018-12-19T14:51:41.339Z,33.75
2018-12-19T14:52:39.765Z,33.75
2018-12-19T14:53:41.185Z,33.75
2018-12-19T14:54:41.928Z,39.38
2018-12-19T14:55:42.398Z,39.38
2018-12-19T14:56:42.603Z,39.38
2018-12-19T14:57:45.863Z,33.75
2018-12-19T14:58:44.661Z,33.75
2018-12-19T15:00:04.247Z,33.75
2018-12-19T15:00:16.935Z,33.75
2018-12-19T15:00:38.137Z,33.75
2018-12-19T15:01:37.519Z,39.38
2018-12-19T15:02:37.946Z,39.38
2018-12-19T15:03:38.652Z,39.38
2018-12-19T15:04:38.849Z,39.38
2018-12-19T15:05:40.377Z,39.38
2018-12-19T15:06:40.518Z,45
2018-12-19T15:07:41.496Z,45
2018-12-19T15:08:42.470Z,45
2018-12-19T15:09:42.894Z,45
2018-12-19T15:10:43.904Z,45
2018-12-19T15:11:44.018Z,45
2018-12-19T15:12:45.279Z,39.38
2018-12-19T15:13:45.978Z,39.38
2018-12-19T15:14:46.953Z,33.75
2018-12-19T15:15:47.649Z,28.13
2018-12-19T15:16:48.632Z,28.13
2018-12-19T15:17:49.882Z,28.13
2018-12-19T15:18:49.581Z,28.13
2018-12-19T15:19:49.722Z,22.5
2018-12-19T15:20:50.424Z,22.5
2018-12-19T15:21:51.027Z,22.5
2018-12-19T15:22:52.445Z,16.88
2018-12-19T15:23:53.705Z,16.88
2018-12-19T15:24:53.422Z,11.25
2018-12-19T15:25:54.119Z,11.25
2018-12-19T15:26:55.368Z,5.63
2018-12-19T15:27:56.065Z,5.63
2018-12-19T15:28:56.552Z,5.63
2018-12-19T15:29:57.802Z,5.63
2018-12-19T15:30:57.496Z,5.63
2018-12-19T15:31:59.006Z,5.63
2018-12-19T15:32:59.146Z,5.63
2018-12-19T15:33:59.847Z,5.63
2018-12-19T15:35:00.983Z,0
2018-12-19T15:36:02.119Z,0
2018-12-19T15:37:03.153Z,0
2018-12-19T15:38:03.401Z,0
2018-12-19T15:39:03.817Z,0
2018-12-19T15:40:03.956Z,0
2018-12-19T15:41:04.651Z,0
2018-12-19T15:42:05.480Z,0
2018-12-19T15:43:07.006Z,0
2018-12-19T15:44:07.977Z,0
2018-12-19T15:45:10.163Z,0
2018-12-19T15:46:08.430Z,0
2018-12-19T15:47:08.848Z,0
2018-12-19T15:48:09.273Z,0
2018-12-19T15:49:09.411Z,0
2018-12-19T15:50:11.103Z,0
2018-12-19T15:51:11.519Z,0
2018-12-19T15:52:12.352Z,0
2018-12-19T15:53:13.047Z,0
2018-12-19T15:54:13.741Z,0
2018-12-19T15:55:14.156Z,0
2018-12-19T15:56:15.127Z,0
2018-12-19T15:57:15.276Z,0
2018-12-19T15:58:16.692Z,0
2018-12-19T15:59:18.719Z,0
2018-12-19T16:00:18.967Z,0
2018-12-19T16:01:19.667Z,0
2018-12-19T16:02:21.091Z,0
2018-12-19T16:03:21.837Z,0
2018-12-19T16:04:23.367Z,0
2018-12-19T16:05:22.818Z,0
2018-12-19T16:06:24.835Z,0
2018-12-19T16:07:25.660Z,0
2018-12-19T16:08:28.193Z,0
2018-12-19T16:09:27.226Z,0
2018-12-19T16:10:27.374Z,0
2018-12-19T16:11:29.171Z,0
2018-12-19T16:12:28.994Z,0
2018-12-19T16:13:29.127Z,0
2018-12-19T16:14:30.446Z,0
2018-12-19T16:15:31.152Z,0
2018-12-19T16:16:31.560Z,0
2018-12-19T16:17:31.697Z,0
2018-12-19T16:18:32.834Z,0
2018-12-19T16:19:34.249Z,0
2018-12-19T16:20:34.944Z,0
2018-12-19T16:21:35.634Z,0
2018-12-19T16:22:36.469Z,0
2018-12-19T16:23:36.883Z,0
2018-12-19T16:24:37.332Z,0
2018-12-19T16:25:38.303Z,0
2018-12-19T16:26:38.714Z,0